Nearby METAR Reports

 

KCOS - Colorado Springs, Colorado, USA
Distance from station: S 6mi, 9km
Updated: 07/18/2019 3:54am
Clear
Clear
 Wind from NNE
Wind: NNE 9 mph , 15 km/h
Temperature: 59°F , 15°C
Dew Point: 46°F , 8°C
Humidity: 63%
Barometer: 30.10 inHg , 1019.3 hPa
Clouds: Clear
Visibility: 10 miles , 16 km
2019/07/18 09:54 KCOS 180954Z 02008KT 10SM CLR 15/08 A3010 RMK AO2 SLP097 T01500078
KAFF - Usaf Academy/Cos, Colorado, USA
Distance from station: NW 7mi, 12km
Updated: 07/18/2019 3:56am
Clear
Clear
 Wind from N
Wind: N 10 mph , 17 km/h
Temperature: 54°F , 12°C
Dew Point: 45°F , 7°C
Humidity: 72%
Barometer: 30.11 inHg , 1019.6 hPa
Clouds: Clear
Visibility: 10 miles , 16 km
2019/07/18 09:56 KAFF 180956Z AUTO 01009KT 10SM CLR 12/07 A3011 RMK AO2 SLP095 T01160065
 
KFLY - Co Spngs Meadow, Colorado, USA
Distance from station: ENE 8mi, 13km
Updated: 07/18/2019 3:55am
Clear
Clear
 Wind from WNW
Wind: WNW 9 mph , 15 km/h
Temperature: 61°F , 16°C
Dew Point: 45°F , 7°C
Humidity: 55%
Barometer: 30.15 inHg , 1021 hPa
Clouds: Clear
Visibility: 10 miles , 16 km
2019/07/18 09:55 KFLY 180955Z AUTO 30008KT 10SM CLR 16/07 A3015 RMK AO2 T01560069
KFCS - Fort Carson, Colorado, USA
Distance from station: S 17mi, 27km
Updated: 07/18/2019 3:56am
Clear
Clear
 Wind from NW
Wind: NW 8 mph , 13 km/h
Temperature: 64°F , 18°C
Dew Point: 39°F , 4°C
Humidity: 40%
Barometer: 30.05 inHg , 1017.6 hPa
Clouds: Clear
Visibility: 10 miles , 16 km
2019/07/18 09:56 KFCS 180956Z AUTO 31007KT 10SM CLR 18/04 A3005 RMK AO2 SLP106 T01750044 $
 
KMNH - Monument/Elbert, Colorado, USA
Distance from station: N 22mi, 35km
Updated: 07/18/2019 3:49am
Clear
Clear
 Wind from SSW
Wind: SSW 7 mph , 11 km/h
Temperature: 57°F , 14°C
Dew Point: 45°F , 7°C
Humidity: 63%
Barometer: 30.17 inHg , 1021.7 hPa
Clouds: Clear
Visibility: 10 miles , 16 km
2019/07/18 09:49 KMNH 180949Z AUTO 20006KT 10SM CLR 14/07 A3017 RMK AO2
K1V6 - Canon City, Colorado, USA
Distance from station: SSW 39mi, 62km
Updated: 07/17/2019 10:30am
NOT Current
Clear
Clear
 Wind from WSW
Wind: WSW 14 mph , 22 km/h, Gust: 17 mph , 28 km/h
Temperature: 91°F , 33°C
Dew Point: 45°F , 7°C
Humidity: 20%
Barometer: 30.02 inHg , 1016.6 hPa
Clouds: Clear
Visibility: 10 miles , 16 km
2019/07/17 16:30 K1V6 171630Z AUTO 25012G15KT 10SM CLR 33/07 A3002 RMK AO2
 
KPUB - Pueblo, Colorado, USA
Distance from station: SSE 44mi, 71km
Updated: 07/18/2019 3:53am
Clear
Clear
 Wind from W
Wind: W 5 mph , 7 km/h
Temperature: 63°F , 17°C
Dew Point: 52°F , 11°C
Humidity: 68%
Barometer: 29.97 inHg , 1014.9 hPa
Clouds: Clear
Visibility: 10 miles , 16 km
2019/07/18 09:53 KPUB 180953Z AUTO 27004KT 10SM CLR 17/11 A2997 RMK AO2 SLP074 T01670111
KAPA - Denver/Arapahoe, Colorado, USA
Distance from station: N 47mi, 75km
Updated: 07/18/2019 3:53am
Clear
Clear
 Wind from calm
Wind: Calm
Temperature: 64°F , 18°C
Dew Point: 41°F , 5°C
Humidity: 43%
Barometer: 30.04 inHg , 1017.3 hPa
Clouds: Clear
Visibility: 10 miles , 16 km
2019/07/18 09:53 KAPA 180953Z 00000KT 10SM CLR 18/05 A3004 RMK AO2 SLP089 T01830050